• Join FlightAware (Why Join?)
  • Login
  • US Flag 
08:52PM EST


 

Airport Tracker/Info


-or-


 

Live Flight TrackerFlight Track Log ✈ UAL5786 ✈ 27-Aug-2013 ✈ KMHT - KORD

Flight Track Log - Related Links

Times and Time Zones

All times are in EDT time to prevent confusion due to time zone crossing. See the UAL5786 flight status page for this flight to view local times or setup timezone preferences in your user account.

Time Position Orientation Groundspeed Altitude Reporting Facility
EDT Latitude Longitude Course Direction KTS MPH feet Rate Location/Type
07:31AM 42.9500 -71.4500 274° West 169 194 900  Level KA90
07:32AM 43.0050 -71.4833 336° Northwest 191 220 3,200 2,160 Climbing Boston Center
07:33AM 43.0389 -71.5567 302° West 205 236 5,800 2,100 Climbing Boston Center
07:34AM 42.9500 -72.0087 270° West  Level FlightAware Approximate
07:34AM 43.0581 -71.6247 291° West 216 249 7,400  Level Boston Center
07:35AM 42.9501 -72.1539 270° West  Level FlightAware Approximate
07:35AM 43.0881 -71.7264 292° West 252 290 8,800  Level Boston Center
07:36AM 42.9538 -72.2990 274° West  Level FlightAware Approximate
07:36AM 43.0989 -71.8203 279° West 281 323 10,300  Level Boston Center
07:37AM 43.1039 -71.9567 273° West 317 365 11,100 900 Climbing Boston Center
07:38AM 43.1083 -72.0761 273° West 349 402 12,200 1,260 Climbing Boston Center
07:39AM 43.1131 -72.2239 273° West 354 407 13,600 1,140 Climbing Boston Center
07:40AM 43.1172 -72.3492 273° West 365 420 14,600 1,080 Climbing Boston Center
07:41AM 43.1194 -72.4883 271° West 365 420 15,800 1,200 Climbing Boston Center
07:42AM 43.1256 -72.6419 273° West 365 420 17,000 1,080 Climbing Boston Center
07:43AM 43.1292 -72.7842 272° West 365 420 18,000 900 Climbing Boston Center
07:44AM 43.1331 -72.8981 273° West 365 420 18,900 1,020 Climbing Boston Center
07:45AM 43.1364 -73.0717 272° West 372 428 20,100 1,080 Climbing Boston Center
07:46AM 43.1397 -73.2197 272° West 384 442 21,100 840 Climbing Boston Center
07:47AM 43.1431 -73.3364 272° West 384 442 21,900 960 Climbing Boston Center
07:48AM 43.1417 -73.5042 269° West 390 449 23,100 1,140 Climbing Boston Center
07:49AM 43.1461 -73.6636 272° West 390 449 24,200 1,020 Climbing Boston Center
07:50AM 43.1467 -73.8117 270° West 390 449 25,200 960 Climbing Boston Center
07:51AM 43.1489 -73.9597 271° West 385 443 26,200 960 Climbing Boston Center
07:52AM 43.1489 -74.1050 270° West 385 443 27,200 960 Climbing Boston Center
07:53AM 43.1531 -74.2531 272° West 385 443 28,200 1,020 Climbing Boston Center
07:54AM 43.1547 -74.3953 271° West 385 443 29,300 1,020 Climbing Boston Center
07:55AM 43.1564 -74.5433 271° West 385 443 30,300 840 Climbing Boston Center
07:56AM 43.1581 -74.6717 271° West 385 443 31,100 840 Climbing Boston Center
07:57AM 43.1592 -74.8167 271° West 385 443 32,100 960 Climbing Boston Center
07:58AM 43.1583 -74.9619 270° West 385 443 33,100 900 Climbing Boston Center
07:59AM 43.1592 -75.1044 271° West 385 443 34,000 420 Climbing Boston Center
08:00AM 43.1575 -75.2553 269° West 390 449 34,000  Level Boston Center
08:01AM 43.1619 -75.4147 272° West 403 464 34,000  Level Boston Center
08:02AM 43.1617 -75.5772 270° West 423 487 34,000  Level Boston Center
08:03AM 43.1614 -75.7394 270° West 423 487 34,000  Level Boston Center
08:04AM 43.1628 -75.8989 271° West 423 487 34,000  Level Boston Center
08:05AM 43.1622 -76.0556 270° West 423 487 34,000 120 Level Boston Center
08:06AM 43.1611 -76.2147 270° West 418 481 34,300 480 Climbing Boston Center
08:07AM 43.1375 -76.4717 263° West 405 466 35,300 240 Climbing Cleveland Center
08:08AM 43.1264 -76.6289 265° West 412 474 35,000 -180 Descending Cleveland Center
08:09AM 43.1092 -76.8008 262° West 418 481 35,000  Level Cleveland Center
08:10AM 43.0953 -76.9553 263° West 418 481 35,000  Level Cleveland Center
08:11AM 43.0811 -77.1067 263° West 418 481 35,000  Level Cleveland Center
08:12AM 43.0689 -77.2608 264° West 408 470 35,000  Level Cleveland Center
08:13AM 43.0525 -77.4122 262° West 408 470 35,000  Level Cleveland Center
08:14AM 43.0397 -77.5636 263° West 408 470 35,000  Level Cleveland Center
08:15AM 43.0250 -77.7178 263° West 408 470 35,000  Level Cleveland Center
08:16AM 43.0097 -77.8575 262° West 408 470 35,000  Level Cleveland Center
08:17AM 42.9944 -78.0114 262° West 408 470 35,000  Level Cleveland Center
08:18AM 42.9789 -78.1653 262° West 408 470 35,100 420 Climbing Cleveland Center
08:19AM 42.9778 -78.3131 269° West 403 464 35,900 420 Climbing Cleveland Center
08:20AM 42.9806 -78.4578 272° West 390 449 36,000  Climbing Cleveland Center
08:21AM 42.9831 -78.6053 271° West 385 443 36,000  Level Cleveland Center
08:22AM 42.9856 -78.7525 271° West 385 443 36,000  Level Cleveland Center
08:23AM 42.9897 -78.9000 272° West 385 443 36,000  Level Cleveland Center
08:24AM 42.9833 -79.0000 265° West 390 449 36,000  Level Toronto Center
08:25AM 42.9833 -79.1333 270° West 390 449 36,000  Level Toronto Center
08:26AM 42.9833 -79.2833 270° West 390 449 36,000  Level Toronto Center
08:27AM 42.9833 -79.4333 270° West 390 449 36,000  Level Toronto Center
08:28AM 42.9833 -79.5833 270° West 400 460 36,000  Level Toronto Center
08:29AM 42.9833 -79.7167 270° West 400 460 36,000  Level Toronto Center
08:30AM 42.9833 -79.8833 270° West 400 460 36,000  Level Toronto Center
08:31AM 43.0000 -80.0500 278° West 390 449 36,000  Level Toronto Center
08:32AM 43.0000 -80.1833 270° West 390 449 36,000  Level Toronto Center
08:33AM 43.0000 -80.3333 270° West 390 449 36,000  Level Toronto Center
08:34AM 43.0000 -80.4833 270° West 390 449 36,000  Level Toronto Center
08:35AM 43.0000 -80.6333 270° West 400 460 36,000  Level Toronto Center
08:36AM 43.0000 -80.7667 270° West 390 449 36,000  Level Toronto Center
08:37AM 42.9833 -80.9333 262° West 380 437 36,000  Level Toronto Center
08:38AM 42.9833 -81.0667 270° West 380 437 36,000  Level Toronto Center
08:39AM 42.9833 -81.2333 270° West 390 449 36,000  Level Toronto Center
08:40AM 42.9833 -81.3667 270° West 390 449 36,000 -780 Level Toronto Center
08:41AM 42.9833 -81.5167 270° West 380 437 34,500 -1,020 Descending Toronto Center
08:42AM 43.0000 -81.6667 279° West 400 460 34,000 -300 Descending Toronto Center
08:43AM 43.0000 -81.8167 270° West 400 460 34,000  Level Toronto Center
08:44AM 42.9833 -81.9500 260° West 400 460 34,000  Level Toronto Center
08:45AM 42.9833 -82.1167 270° West 400 460 34,000  Level Toronto Center
08:46AM 42.9833 -82.2833 270° West 400 460 34,000  Level Toronto Center
08:47AM 42.9833 -82.4167 270° West 400 460 34,000  Level Toronto Center
08:48AM 42.9833 -82.5667 270° West 400 460 34,000  Level Toronto Center
08:49AM 42.9867 -82.7061 272° West 406 467 34,000  Level Cleveland Center
08:50AM 42.9836 -82.8622 269° West 406 467 34,000  Level Cleveland Center
08:51AM 42.9806 -83.0125 268° West 406 467 34,000  Level Cleveland Center
08:52AM 42.9794 -83.1656 269° West 401 461 34,000 -360 Level Cleveland Center
08:53AM 42.9778 -83.3275 269° West 413 475 33,300 -900 Descending Cleveland Center
08:54AM 42.9717 -83.4917 267° West 425 489 32,300 -660 Descending Cleveland Center
08:55AM 42.9675 -83.6533 268° West 432 497 32,000 -180 Descending Cleveland Center
08:56AM 42.9611 -83.8061 267° West 445 512 32,000  Level Cleveland Center
08:57AM 42.9439 -83.9728 262° West 445 512 32,000  Level Cleveland Center
08:58AM 42.9286 -84.1364 263° West 451 519 32,000  Level Cleveland Center
08:59AM 42.9128 -84.3028 263° West 445 512 32,000  Level Cleveland Center
09:00AM 42.8978 -84.4481 262° West 445 512 32,000  Level Chicago Center
09:01AM 42.8808 -84.6161 262° West 449 517 32,000  Level Chicago Center
09:02AM 42.8600 -84.8183 262° West 450 518 32,000  Level Chicago Center
09:03AM 42.8422 -84.9861 262° West 449 517 32,000  Level Chicago Center
09:04AM 42.8242 -85.1556 262° West 451 519 32,000 -1,200 Level Chicago Center
09:05AM 42.8056 -85.3275 262° West 458 527 29,600 -2,280 Descending Chicago Center
09:06AM 42.7856 -85.4997 261° West 460 529 27,400 -2,040 Descending Chicago Center
09:07AM 42.7553 -85.6686 256° West 458 527 25,400 -1,800 Descending Chicago Center
09:08AM 42.7256 -85.8381 257° West 458 527 23,800 -1,680 Descending Chicago Center
09:09AM 42.6894 -86.0353 256° West 446 513 21,900 -1,620 Descending Chicago Center
09:10AM 42.6608 -86.1925 256° West 430 495 20,500 -960 Descending Chicago Center
09:11AM 42.6317 -86.3483 256° West 425 489 20,000 -300 Descending Chicago Center
09:12AM 42.6031 -86.5019 256° West 421 484 19,900 -840 Descending Chicago Center
09:13AM 42.5747 -86.6556 256° West 419 482 18,300 -1,680 Descending Chicago Center
09:14AM 42.5433 -86.7961 253° West 396 456 16,500 -2,280 Descending Chicago Center
09:15AM 42.4975 -86.9597 249° West 387 445 13,700 -2,460 Descending Chicago Center
09:16AM 42.4639 -87.0850 250° West 359 413 11,500 -1,740 Descending Chicago Center
09:17AM 42.4333 -87.1908 249° West 307 353 10,200 -1,200 Descending Chicago Center
09:18AM 42.3683 -87.2267 202° Southwest 270 311 9,100 -600 Descending Chicago Center
09:19AM 42.2950 -87.2525 195° South 263 303 9,000 -60 Descending Chicago Center
09:20AM 42.2206 -87.2778 194° South 278 320 9,000 -300 Level Chicago Center
09:21AM 42.1472 -87.2778 180° South 276 318 8,400 -1,140 Descending Chicago Center
09:23AM 42.0544 -87.2675 175° South 277 319 6,700 -1,200 Descending Chicago Center
09:24AM 41.9994 -87.3186 215° Southwest 278 320 6,000 -360 Descending Chicago Center
09:25AM 41.9789 -87.4097 253° West 261 300 6,000  Level Chicago Center
09:26AM 41.9839 -87.5097 274° West 269 310 6,000 -600 Level Chicago Center
09:27AM 41.9839 -87.5983 270° West 252 290 4,800 -1,200 Descending Chicago Center
09:28AM 41.9836 -87.6858 270° West 206 237 3,600 -1,080 Descending Chicago Center
09:29AM 41.9833 -87.7547 270° West 197 227 2,600 -900 Descending Chicago Center
09:30AM 41.9839 -87.8156 271° West 183 211 1,800 -660 Descending Chicago Center
09:31AM 41.9853 -87.8608 272° West 149 171 1,300 -540 Descending Chicago Center